createdAt,value
2019-05-16T00:02:08.212Z,4.03
2019-05-16T00:04:42.271Z,3.87
2019-05-16T00:07:18.944Z,4.30
2019-05-16T00:09:51.749Z,4.17
2019-05-16T00:12:25.720Z,4.20
2019-05-16T00:17:32.836Z,4.20
2019-05-16T00:20:09.260Z,3.95
2019-05-16T00:22:43.903Z,4.10
2019-05-16T00:25:18.111Z,4.08
2019-05-16T00:27:52.018Z,4.03
2019-05-16T00:30:28.496Z,3.60
2019-05-16T00:33:01.377Z,3.80
2019-05-16T00:35:35.219Z,4.30
2019-05-16T00:38:09.083Z,3.80
2019-05-16T00:40:43.917Z,4.03
2019-05-16T00:43:18.384Z,3.80
2019-05-16T00:45:53.583Z,4.00
2019-05-16T00:48:28.855Z,3.45
2019-05-16T00:51:03.111Z,3.52
2019-05-16T00:58:48.437Z,3.70
2019-05-16T01:01:22.473Z,3.72
2019-05-16T01:03:58.610Z,3.60
2019-05-16T01:06:32.225Z,3.92
2019-05-16T01:09:08.604Z,3.67
2019-05-16T01:11:42.666Z,3.80
2019-05-16T01:14:17.728Z,3.30
2019-05-16T01:16:51.613Z,3.72
2019-05-16T01:19:27.793Z,3.50
2019-05-16T01:22:02.037Z,3.55
2019-05-16T01:27:09.060Z,3.90
2019-05-16T01:29:43.178Z,3.47
2019-05-16T01:37:24.976Z,3.00
2019-05-16T01:42:32.759Z,3.37
2019-05-16T01:45:08.439Z,3.37
2019-05-16T01:47:42.385Z,3.70
2019-05-16T01:50:18.138Z,3.98
2019-05-16T01:52:52.318Z,3.90
2019-05-16T01:55:26.089Z,3.47
2019-05-16T01:57:59.924Z,3.75
2019-05-16T02:00:37.735Z,3.50
2019-05-16T02:03:09.895Z,3.52
2019-05-16T02:08:18.280Z,3.77
2019-05-16T02:10:52.216Z,4.05
2019-05-16T02:13:28.392Z,4.20
2019-05-16T02:16:01.871Z,3.35
2019-05-16T02:21:08.885Z,3.60
2019-05-16T02:23:42.867Z,3.72
2019-05-16T02:28:50.960Z,3.65
2019-05-16T02:31:25.436Z,4.20
2019-05-16T02:34:01.206Z,4.60
2019-05-16T02:36:35.149Z,4.28
2019-05-16T02:41:46.126Z,4.00
2019-05-16T02:44:20.816Z,3.60
2019-05-16T02:46:55.627Z,4.25
2019-05-16T02:49:30.698Z,4.12
2019-05-16T02:52:05.118Z,3.67
2019-05-16T02:54:41.209Z,4.00
2019-05-16T02:57:14.822Z,4.40
2019-05-16T03:02:23.648Z,3.77
2019-05-16T03:07:41.111Z,3.62
2019-05-16T03:10:10.905Z,3.95
2019-05-16T03:12:44.324Z,3.70
2019-05-16T03:15:21.525Z,3.70
2019-05-16T03:17:58.794Z,4.30
2019-05-16T03:20:33.855Z,3.80
2019-05-16T03:23:11.014Z,14.43
2019-05-16T03:25:43.302Z,6.78
2019-05-16T03:28:17.121Z,5.47
2019-05-16T03:30:54.441Z,7.00
2019-05-16T03:33:35.174Z,4.20
2019-05-16T03:36:04.610Z,4.30
2019-05-16T03:38:41.084Z,4.42
2019-05-16T03:41:13.587Z,3.42
2019-05-16T03:43:50.513Z,3.85
2019-05-16T03:46:23.130Z,4.33
2019-05-16T03:48:57.069Z,3.83
2019-05-16T03:51:31.116Z,3.72
2019-05-16T03:56:40.578Z,3.83
2019-05-16T03:59:13.609Z,4.00
2019-05-16T04:01:47.556Z,4.20
2019-05-16T04:04:21.527Z,4.15
2019-05-16T04:06:55.415Z,3.62
2019-05-16T04:09:31.547Z,4.15
2019-05-16T04:12:04.834Z,4.00
2019-05-16T04:14:40.881Z,3.85
2019-05-16T04:17:14.175Z,4.10
2019-05-16T04:19:50.678Z,3.80
2019-05-16T04:22:23.745Z,3.80
2019-05-16T04:27:31.110Z,4.05
2019-05-16T04:30:07.299Z,3.85
2019-05-16T04:32:42.122Z,3.80
2019-05-16T04:35:16.468Z,4.78
2019-05-16T04:37:51.327Z,4.40
2019-05-16T04:40:25.408Z,3.80
2019-05-16T04:43:01.189Z,4.10
2019-05-16T04:45:34.779Z,4.20
2019-05-16T04:48:11.242Z,3.65
2019-05-16T04:50:44.225Z,3.80
2019-05-16T04:53:20.639Z,3.92
2019-05-16T04:55:53.599Z,4.05
2019-05-16T04:58:27.582Z,3.72
2019-05-16T05:01:01.947Z,3.55
2019-05-16T05:03:35.914Z,3.87
2019-05-16T05:06:11.325Z,3.72
2019-05-16T05:08:54.021Z,3.83
2019-05-16T05:11:21.668Z,3.72
2019-05-16T05:13:55.766Z,3.95
2019-05-16T05:16:30.631Z,3.75
2019-05-16T05:19:04.979Z,3.70
2019-05-16T05:21:40.924Z,3.77
2019-05-16T05:24:14.468Z,3.70
2019-05-16T05:26:50.366Z,3.75
2019-05-16T05:29:23.973Z,3.58
2019-05-16T05:32:03.564Z,3.60
2019-05-16T05:34:33.578Z,3.77
2019-05-16T05:37:07.426Z,3.30
2019-05-16T05:39:42.701Z,3.47
2019-05-16T05:42:16.750Z,3.77
2019-05-16T05:47:24.912Z,3.47
2019-05-16T05:50:00.650Z,3.75
2019-05-16T05:52:34.325Z,3.35
2019-05-16T05:55:10.531Z,3.20
2019-05-16T05:57:44.047Z,3.17
2019-05-16T06:00:21.058Z,3.58
2019-05-16T06:02:54.197Z,3.72
2019-05-16T06:05:30.420Z,3.15
2019-05-16T06:08:03.580Z,3.17
2019-05-16T06:10:37.457Z,3.00
2019-05-16T06:13:11.266Z,3.10
2019-05-16T06:15:45.129Z,3.25
2019-05-16T06:18:19.831Z,3.27
2019-05-16T06:20:54.094Z,3.30
2019-05-16T06:23:30.814Z,3.20
2019-05-16T06:26:03.551Z,2.80
2019-05-16T06:28:37.505Z,3.12
2019-05-16T06:31:14.017Z,3.30
2019-05-16T06:33:47.065Z,3.30
2019-05-16T06:36:21.739Z,3.40
2019-05-16T06:38:55.556Z,3.42
2019-05-16T06:41:30.407Z,3.58
2019-05-16T06:44:04.526Z,3.12
2019-05-16T06:46:54.031Z,3.35
2019-05-16T06:49:14.154Z,3.52
2019-05-16T06:51:48.146Z,3.47
2019-05-16T06:54:22.123Z,3.42
2019-05-16T06:56:55.984Z,3.47
2019-05-16T06:59:29.885Z,3.02
2019-05-16T07:02:03.903Z,3.15
2019-05-16T07:07:12.671Z,3.12
2019-05-16T07:09:58.078Z,2.98
2019-05-16T07:12:22.259Z,3.02
2019-05-16T07:17:30.679Z,2.98
2019-05-16T07:20:06.716Z,3.05
2019-05-16T07:22:40.841Z,3.27
2019-05-16T07:25:15.117Z,3.05
2019-05-16T07:27:50.965Z,3.33
2019-05-16T07:30:24.705Z,3.30
2019-05-16T07:35:33.469Z,3.47
2019-05-16T07:40:40.657Z,3.47
2019-05-16T07:45:47.605Z,3.35
2019-05-16T07:50:56.161Z,3.10
2019-05-16T07:56:05.143Z,3.17
2019-05-16T08:01:12.989Z,3.47
2019-05-16T08:03:47.024Z,3.20
2019-05-16T08:08:54.396Z,3.22
2019-05-16T08:11:30.383Z,3.30
2019-05-16T08:14:03.819Z,3.20
2019-05-16T08:19:10.974Z,3.40
2019-05-16T08:21:44.804Z,3.65
2019-05-16T08:26:53.438Z,3.52
2019-05-16T08:29:27.664Z,3.75
2019-05-16T08:32:02.283Z,3.35
2019-05-16T08:34:36.364Z,3.20
2019-05-16T08:37:32.760Z,3.50
2019-05-16T08:39:45.937Z,3.15
2019-05-16T08:42:20.769Z,3.70
2019-05-16T08:44:54.911Z,3.10
2019-05-16T08:47:32.144Z,3.50
2019-05-16T08:52:44.748Z,3.30
2019-05-16T08:55:21.752Z,3.37
2019-05-16T08:57:54.693Z,3.20
2019-05-16T09:00:33.137Z,3.20
2019-05-16T09:03:04.656Z,3.20
2019-05-16T09:05:42.645Z,3.10
2019-05-16T09:08:14.144Z,3.55
2019-05-16T09:10:34.456Z,3.60
2019-05-16T09:10:59.734Z,3.50
2019-05-16T09:13:23.478Z,3.20
2019-05-16T09:18:40.678Z,3.47
2019-05-16T09:21:07.434Z,3.67
2019-05-16T09:23:41.718Z,3.40
2019-05-16T09:26:19.280Z,3.08
2019-05-16T09:28:51.679Z,3.60
2019-05-16T09:31:27.668Z,3.50
2019-05-16T09:34:02.142Z,3.87
2019-05-16T09:41:50.965Z,3.60
2019-05-16T09:44:20.095Z,3.65
2019-05-16T09:46:56.839Z,3.58
2019-05-16T09:49:29.712Z,3.58
2019-05-16T09:52:03.847Z,3.58
2019-05-16T09:54:38.158Z,3.30
2019-05-16T09:57:12.012Z,3.77
2019-05-16T09:59:46.574Z,3.75
2019-05-16T10:02:20.697Z,3.58
2019-05-16T10:07:29.150Z,3.92
2019-05-16T10:10:03.168Z,3.35
2019-05-16T10:15:12.870Z,3.65
2019-05-16T10:17:47.613Z,3.72
2019-05-16T10:20:21.878Z,3.90
2019-05-16T10:22:57.951Z,3.75
2019-05-16T10:25:31.401Z,4.60
2019-05-16T10:28:05.375Z,4.08
2019-05-16T10:33:12.514Z,4.35
2019-05-16T10:35:48.008Z,4.25
2019-05-16T10:38:22.060Z,4.08
2019-05-16T10:40:56.609Z,4.70
2019-05-16T10:43:30.542Z,4.20
2019-05-16T10:46:06.510Z,4.00
2019-05-16T10:48:40.006Z,4.08
2019-05-16T10:51:13.922Z,4.30
2019-05-16T10:54:13.125Z,4.12
2019-05-16T10:56:23.547Z,4.80
2019-05-16T10:59:28.485Z,4.30
2019-05-16T11:01:33.137Z,5.83
2019-05-16T11:04:07.604Z,4.40
2019-05-16T11:06:41.601Z,5.60
2019-05-16T11:09:17.343Z,5.33
2019-05-16T11:11:51.000Z,6.05
2019-05-16T11:14:27.980Z,6.33
2019-05-16T11:17:00.379Z,7.40
2019-05-16T11:19:34.260Z,6.83
2019-05-16T11:22:08.131Z,9.10
2019-05-16T11:24:42.156Z,5.17
2019-05-16T11:29:49.148Z,5.47
2019-05-16T11:32:23.038Z,7.62
2019-05-16T11:34:57.048Z,8.28
2019-05-16T11:37:30.856Z,6.78
2019-05-16T11:40:09.278Z,5.85
2019-05-16T11:42:43.186Z,9.53
2019-05-16T11:45:17.352Z,6.12
2019-05-16T11:47:51.308Z,6.00
2019-05-16T11:50:27.846Z,6.55
2019-05-16T11:52:59.749Z,7.17
2019-05-16T11:55:35.061Z,7.47
2019-05-16T11:58:07.047Z,8.03
2019-05-16T12:00:39.936Z,7.75
2019-05-16T12:03:12.657Z,9.33
2019-05-16T12:05:48.205Z,7.70
2019-05-16T12:08:21.387Z,7.30
2019-05-16T12:10:54.206Z,7.87
2019-05-16T12:13:32.383Z,6.80
2019-05-16T12:16:02.758Z,7.20
2019-05-16T12:21:09.161Z,7.53
2019-05-16T12:23:42.001Z,7.22
2019-05-16T12:26:17.288Z,7.50
2019-05-16T12:28:49.190Z,7.62
2019-05-16T12:31:22.057Z,8.45
2019-05-16T12:33:59.355Z,8.05
2019-05-16T12:36:31.415Z,8.25
2019-05-16T12:39:07.766Z,8.83
2019-05-16T12:41:41.339Z,8.13
2019-05-16T12:44:16.103Z,8.33
2019-05-16T12:46:48.863Z,9.20
2019-05-16T12:49:21.605Z,9.20
2019-05-16T12:51:56.934Z,8.73
2019-05-16T12:54:29.114Z,8.65
2019-05-16T12:57:01.978Z,8.38
2019-05-16T12:59:36.752Z,9.88
2019-05-16T13:02:09.509Z,9.30
2019-05-16T13:04:42.346Z,9.08
2019-05-16T13:07:17.239Z,9.78
2019-05-16T13:09:50.182Z,10.78
2019-05-16T13:12:23.231Z,10.58
2019-05-16T13:14:55.973Z,11.43
2019-05-16T13:17:28.828Z,10.15
2019-05-16T13:20:01.991Z,9.50
2019-05-16T13:22:34.863Z,9.80
2019-05-16T13:25:07.848Z,10.08
2019-05-16T13:27:40.738Z,10.28
2019-05-16T13:30:14.058Z,9.90
2019-05-16T13:32:46.957Z,13.60
2019-05-16T13:35:19.981Z,12.15
2019-05-16T13:37:52.784Z,10.32
2019-05-16T13:40:27.603Z,11.12
2019-05-16T13:43:00.046Z,12.13
2019-05-16T13:45:32.868Z,11.38
2019-05-16T13:48:08.101Z,12.55
2019-05-16T13:50:40.192Z,11.60
2019-05-16T13:53:16.242Z,12.23
2019-05-16T13:55:48.536Z,12.63
2019-05-16T13:58:21.564Z,13.90
2019-05-16T14:00:56.996Z,13.10
2019-05-16T14:03:28.938Z,12.25
2019-05-16T14:06:01.887Z,13.38
2019-05-16T14:08:37.066Z,12.23
2019-05-16T14:11:10.848Z,13.60
2019-05-16T14:13:44.012Z,13.28
2019-05-16T14:16:17.965Z,12.95
2019-05-16T14:18:51.186Z,13.58
2019-05-16T14:21:24.106Z,13.75
2019-05-16T14:23:57.000Z,15.30
2019-05-16T14:26:29.876Z,14.63
2019-05-16T14:29:02.818Z,13.48
2019-05-16T14:31:37.570Z,13.62
2019-05-16T14:34:10.284Z,13.55
2019-05-16T14:36:43.087Z,13.72
2019-05-16T14:39:18.919Z,14.23
2019-05-16T14:41:50.240Z,14.40
2019-05-16T14:44:23.074Z,13.53
2019-05-16T14:46:55.988Z,15.23
2019-05-16T14:49:29.148Z,15.48
2019-05-16T14:52:02.096Z,17.00
2019-05-16T14:54:37.545Z,22.27
2019-05-16T14:57:09.395Z,18.77
2019-05-16T14:59:42.098Z,19.67
2019-05-16T15:02:17.826Z,20.05
2019-05-16T15:04:49.780Z,19.48
2019-05-16T15:07:22.808Z,25.75
2019-05-16T15:09:56.618Z,30.65
2019-05-16T15:12:29.519Z,23.07
2019-05-16T15:15:19.156Z,31.12
2019-05-16T15:17:37.160Z,29.10
2019-05-16T15:20:10.364Z,26.73
2019-05-16T15:22:43.167Z,25.67
2019-05-16T15:25:17.451Z,27.82
2019-05-16T15:27:50.540Z,23.27
2019-05-16T15:30:23.494Z,22.98
2019-05-16T15:32:56.981Z,22.55
2019-05-16T15:35:30.421Z,19.05
2019-05-16T15:38:03.686Z,18.67
2019-05-16T15:40:37.687Z,16.95
2019-05-16T15:43:10.829Z,19.77
2019-05-16T15:45:48.186Z,20.12
2019-05-16T15:48:18.168Z,24.27
2019-05-16T15:50:51.058Z,25.57
2019-05-16T15:53:24.094Z,27.07
2019-05-16T15:55:58.240Z,23.95
2019-05-16T16:01:03.165Z,15.50
2019-05-16T16:03:38.207Z,16.52
2019-05-16T16:06:10.628Z,16.30
2019-05-16T16:08:43.546Z,14.53
2019-05-16T16:11:17.120Z,15.63
2019-05-16T16:13:50.374Z,17.87
2019-05-16T16:16:23.352Z,17.20
2019-05-16T16:18:57.435Z,18.40
2019-05-16T16:21:30.540Z,17.48
2019-05-16T16:24:08.119Z,20.88
2019-05-16T16:26:38.424Z,22.52
2019-05-16T16:29:11.367Z,19.87
2019-05-16T16:31:44.280Z,25.65
2019-05-16T16:34:17.679Z,23.52
2019-05-16T16:36:50.768Z,22.27
2019-05-16T16:39:23.926Z,20.48
2019-05-16T16:41:57.214Z,23.47
2019-05-16T16:44:31.693Z,20.50
2019-05-16T16:47:06.726Z,20.20
2019-05-16T16:49:40.558Z,19.27
2019-05-16T16:52:13.984Z,20.95
2019-05-16T16:54:47.880Z,18.02
2019-05-16T16:57:20.893Z,17.27
2019-05-16T16:59:53.738Z,26.12
2019-05-16T17:02:27.895Z,17.75
2019-05-16T17:05:02.462Z,21.05
2019-05-16T17:07:37.229Z,19.37
2019-05-16T17:10:10.364Z,16.32
2019-05-16T17:12:43.218Z,20.82
2019-05-16T17:15:17.726Z,26.10
2019-05-16T17:17:50.765Z,18.98
2019-05-16T17:20:23.775Z,25.08
2019-05-16T17:22:57.224Z,16.93
2019-05-16T17:25:30.260Z,18.62
2019-05-16T17:28:03.662Z,18.65
2019-05-16T17:30:37.066Z,18.20
2019-05-16T17:33:10.321Z,17.85
2019-05-16T17:35:48.298Z,16.42
2019-05-16T17:38:18.877Z,17.50
2019-05-16T17:40:52.056Z,18.10
2019-05-16T17:43:27.256Z,21.53
2019-05-16T17:46:00.510Z,20.15
2019-05-16T17:48:33.650Z,18.10
2019-05-16T17:51:06.686Z,17.47
2019-05-16T17:53:39.772Z,18.50
2019-05-16T17:56:12.791Z,17.87
2019-05-16T17:58:45.991Z,19.15
2019-05-16T18:01:19.118Z,20.88
2019-05-16T18:03:51.967Z,19.65
2019-05-16T18:06:27.033Z,19.98
2019-05-16T18:09:03.677Z,18.45
2019-05-16T18:11:33.927Z,17.17
2019-05-16T18:14:07.124Z,17.70
2019-05-16T18:16:52.429Z,17.67
2019-05-16T18:19:14.648Z,16.93
2019-05-16T18:21:47.828Z,16.05
2019-05-16T18:24:20.912Z,17.23
2019-05-16T18:26:53.988Z,17.77
2019-05-16T18:29:27.420Z,17.17
2019-05-16T18:32:00.512Z,16.48
2019-05-16T18:34:33.978Z,17.52
2019-05-16T18:37:07.223Z,18.20
2019-05-16T18:39:40.516Z,18.75
2019-05-16T18:42:13.632Z,19.60
2019-05-16T18:44:47.318Z,19.40
2019-05-16T18:47:20.706Z,20.30
2019-05-16T18:49:53.965Z,24.52
2019-05-16T18:52:26.915Z,23.35
2019-05-16T18:55:00.132Z,21.25
2019-05-16T18:57:33.028Z,23.97
2019-05-16T19:00:07.030Z,18.80
2019-05-16T19:02:41.442Z,21.10
2019-05-16T19:05:14.282Z,23.37
2019-05-16T19:07:47.684Z,22.65
2019-05-16T19:10:21.019Z,21.42
2019-05-16T19:12:54.116Z,20.53
2019-05-16T19:15:27.212Z,20.68
2019-05-16T19:18:00.190Z,19.83
2019-05-16T19:20:33.858Z,19.07
2019-05-16T19:23:07.529Z,19.42
2019-05-16T19:25:41.464Z,19.23
2019-05-16T19:28:14.564Z,19.30
2019-05-16T19:30:47.602Z,17.65
2019-05-16T19:33:20.464Z,18.23
2019-05-16T19:35:53.496Z,18.40
2019-05-16T19:38:29.210Z,18.65
2019-05-16T19:41:00.966Z,18.55
2019-05-16T19:43:33.851Z,18.48
2019-05-16T19:46:06.928Z,19.12
2019-05-16T19:48:39.810Z,18.67
2019-05-16T19:51:12.748Z,19.75
2019-05-16T19:53:47.080Z,19.73
2019-05-16T19:56:20.216Z,22.35
2019-05-16T19:58:53.000Z,39.50
2019-05-16T20:01:27.436Z,27.37
2019-05-16T20:04:00.204Z,26.62
2019-05-16T20:06:33.279Z,29.35
2019-05-16T20:09:07.505Z,35.40
2019-05-16T20:11:40.491Z,35.83
2019-05-16T20:14:13.454Z,30.57
2019-05-16T20:16:47.159Z,33.33
2019-05-16T20:19:20.253Z,28.07
2019-05-16T20:21:53.358Z,23.32
2019-05-16T20:24:27.246Z,23.13
2019-05-16T20:27:00.230Z,22.13
2019-05-16T20:29:33.232Z,20.88
2019-05-16T20:32:07.758Z,21.00
2019-05-16T20:34:41.176Z,20.70
2019-05-16T20:37:17.180Z,20.92
2019-05-16T20:39:52.276Z,21.97
2019-05-16T20:42:27.764Z,21.55
2019-05-16T20:45:00.660Z,21.77
2019-05-16T20:47:33.420Z,21.80
2019-05-16T20:50:07.690Z,21.77
2019-05-16T20:52:41.065Z,21.73
2019-05-16T20:55:14.186Z,22.13
2019-05-16T20:57:48.504Z,22.35
2019-05-16T21:00:21.604Z,22.45
2019-05-16T21:02:54.342Z,22.87
2019-05-16T21:05:27.228Z,21.75
2019-05-16T21:08:00.080Z,23.57
2019-05-16T21:10:33.062Z,22.98
2019-05-16T21:13:07.151Z,22.02
2019-05-16T21:15:40.534Z,22.13
2019-05-16T21:18:13.381Z,21.40
2019-05-16T21:20:47.023Z,21.85
2019-05-16T21:23:20.280Z,21.52
2019-05-16T21:25:53.286Z,21.70
2019-05-16T21:28:26.365Z,21.87
2019-05-16T21:31:00.844Z,23.25
2019-05-16T21:33:33.632Z,23.15
2019-05-16T21:36:07.256Z,23.52
2019-05-16T21:38:40.378Z,23.05
2019-05-16T21:41:13.208Z,21.95
2019-05-16T21:43:46.995Z,20.40
2019-05-16T21:46:20.223Z,19.40
2019-05-16T21:48:53.464Z,20.23
2019-05-16T21:51:26.829Z,19.13
2019-05-16T21:53:59.942Z,20.00
2019-05-16T21:56:32.912Z,19.70
2019-05-16T21:59:07.000Z,19.73
2019-05-16T22:01:40.563Z,19.32
2019-05-16T22:04:13.558Z,18.27
2019-05-16T22:06:47.464Z,20.08
2019-05-16T22:09:20.650Z,19.25
2019-05-16T22:11:53.636Z,19.02
2019-05-16T22:14:28.054Z,19.85
2019-05-16T22:17:02.226Z,19.15
2019-05-16T22:19:36.219Z,19.57
2019-05-16T22:24:41.463Z,18.77
2019-05-16T22:27:14.331Z,18.25
2019-05-16T22:29:47.292Z,18.35
2019-05-16T22:32:20.090Z,19.77
2019-05-16T22:34:52.946Z,17.52
2019-05-16T22:37:26.566Z,19.67
2019-05-16T22:39:59.866Z,18.65
2019-05-16T22:42:32.716Z,18.10
2019-05-16T22:45:08.912Z,18.10
2019-05-16T22:47:41.576Z,17.62
2019-05-16T22:50:14.434Z,18.45
2019-05-16T22:52:47.211Z,17.42
2019-05-16T22:55:20.208Z,17.50
2019-05-16T22:57:53.078Z,18.32
2019-05-16T23:00:27.382Z,18.30
2019-05-16T23:03:00.299Z,18.20
2019-05-16T23:05:33.076Z,17.80
2019-05-16T23:08:09.576Z,18.17
2019-05-16T23:10:40.394Z,17.85
2019-05-16T23:13:13.224Z,16.87
2019-05-16T23:15:46.127Z,18.15
2019-05-16T23:18:18.940Z,19.25
2019-05-16T23:20:51.776Z,17.55
2019-05-16T23:23:26.421Z,18.27
2019-05-16T23:25:58.933Z,17.70
2019-05-16T23:28:31.764Z,18.17
2019-05-16T23:31:04.512Z,17.10
2019-05-16T23:33:37.352Z,17.70
2019-05-16T23:36:10.125Z,18.42
2019-05-16T23:38:42.980Z,17.45
2019-05-16T23:41:17.230Z,18.75
2019-05-16T23:43:50.392Z,18.30
2019-05-16T23:46:23.356Z,19.15
2019-05-16T23:48:56.577Z,20.97
2019-05-16T23:51:29.596Z,20.00
2019-05-16T23:54:02.514Z,20.52
2019-05-16T23:56:37.226Z,22.65
2019-05-16T23:59:09.710Z,21.45
